sensor_id;sensor_type;location;lat;lon;timestamp;P1;durP1;ratioP1;P2;durP2;ratioP2
50459;SDS011;36385;51.644;7.098;2022-12-07T00:02:18;26.30;;;14.82;;
50459;SDS011;36385;51.644;7.098;2022-12-07T00:04:44;25.58;;;15.57;;
50459;SDS011;36385;51.644;7.098;2022-12-07T00:07:10;23.73;;;14.57;;
50459;SDS011;36385;51.644;7.098;2022-12-07T00:09:36;24.05;;;14.70;;
50459;SDS011;36385;51.644;7.098;2022-12-07T00:12:02;24.15;;;15.05;;
50459;SDS011;36385;51.644;7.098;2022-12-07T00:14:27;25.17;;;15.35;;
50459;SDS011;36385;51.644;7.098;2022-12-07T00:16:53;25.50;;;15.93;;
50459;SDS011;36385;51.644;7.098;2022-12-07T00:19:19;26.15;;;15.60;;
50459;SDS011;36385;51.644;7.098;2022-12-07T00:21:45;26.02;;;14.82;;
50459;SDS011;36385;51.644;7.098;2022-12-07T00:24:10;25.08;;;15.35;;
50459;SDS011;36385;51.644;7.098;2022-12-07T00:26:38;27.88;;;15.93;;
50459;SDS011;36385;51.644;7.098;2022-12-07T00:29:15;25.50;;;15.30;;
50459;SDS011;36385;51.644;7.098;2022-12-07T00:31:46;26.92;;;16.75;;
50459;SDS011;36385;51.644;7.098;2022-12-07T00:34:16;26.67;;;16.45;;
50459;SDS011;36385;51.644;7.098;2022-12-07T00:36:43;27.33;;;16.35;;
50459;SDS011;36385;51.644;7.098;2022-12-07T00:39:09;27.38;;;17.10;;
50459;SDS011;36385;51.644;7.098;2022-12-07T00:41:35;28.65;;;16.98;;
50459;SDS011;36385;51.644;7.098;2022-12-07T00:44:00;27.08;;;17.23;;
50459;SDS011;36385;51.644;7.098;2022-12-07T00:46:29;28.70;;;16.98;;
50459;SDS011;36385;51.644;7.098;2022-12-07T00:48:54;29.63;;;16.75;;
50459;SDS011;36385;51.644;7.098;2022-12-07T00:51:21;28.33;;;17.42;;
50459;SDS011;36385;51.644;7.098;2022-12-07T00:53:48;32.45;;;17.17;;
50459;SDS011;36385;51.644;7.098;2022-12-07T00:56:18;29.45;;;17.77;;
50459;SDS011;36385;51.644;7.098;2022-12-07T01:01:18;29.23;;;18.20;;
50459;SDS011;36385;51.644;7.098;2022-12-07T01:03:44;30.58;;;18.20;;
50459;SDS011;36385;51.644;7.098;2022-12-07T01:06:13;31.52;;;19.17;;
50459;SDS011;36385;51.644;7.098;2022-12-07T01:08:43;28.85;;;17.60;;
50459;SDS011;36385;51.644;7.098;2022-12-07T01:11:11;32.03;;;19.13;;
50459;SDS011;36385;51.644;7.098;2022-12-07T01:13:39;31.38;;;19.00;;
50459;SDS011;36385;51.644;7.098;2022-12-07T01:16:05;32.75;;;18.52;;
50459;SDS011;36385;51.644;7.098;2022-12-07T01:18:33;33.25;;;19.17;;
50459;SDS011;36385;51.644;7.098;2022-12-07T01:21:18;32.35;;;19.38;;
50459;SDS011;36385;51.644;7.098;2022-12-07T01:23:46;32.03;;;18.67;;
50459;SDS011;36385;51.644;7.098;2022-12-07T01:26:13;35.10;;;20.35;;
50459;SDS011;36385;51.644;7.098;2022-12-07T01:28:41;33.83;;;19.65;;
50459;SDS011;36385;51.644;7.098;2022-12-07T01:31:07;31.70;;;18.27;;
50459;SDS011;36385;51.644;7.098;2022-12-07T01:33:36;32.72;;;19.10;;
50459;SDS011;36385;51.644;7.098;2022-12-07T01:36:07;32.65;;;18.55;;
50459;SDS011;36385;51.644;7.098;2022-12-07T01:38:36;32.33;;;19.83;;
50459;SDS011;36385;51.644;7.098;2022-12-07T01:41:01;32.42;;;19.13;;
50459;SDS011;36385;51.644;7.098;2022-12-07T01:43:28;30.83;;;19.23;;
50459;SDS011;36385;51.644;7.098;2022-12-07T01:45:55;36.38;;;20.05;;
50459;SDS011;36385;51.644;7.098;2022-12-07T01:48:23;39.40;;;19.55;;
50459;SDS011;36385;51.644;7.098;2022-12-07T01:50:55;33.88;;;18.80;;
50459;SDS011;36385;51.644;7.098;2022-12-07T01:53:25;31.70;;;18.25;;
50459;SDS011;36385;51.644;7.098;2022-12-07T01:55:54;29.77;;;18.15;;
50459;SDS011;36385;51.644;7.098;2022-12-07T01:58:21;32.25;;;18.95;;
50459;SDS011;36385;51.644;7.098;2022-12-07T02:00:48;33.80;;;18.58;;
50459;SDS011;36385;51.644;7.098;2022-12-07T02:03:33;33.55;;;19.13;;
50459;SDS011;36385;51.644;7.098;2022-12-07T02:06:03;34.15;;;19.90;;
50459;SDS011;36385;51.644;7.098;2022-12-07T02:08:30;34.50;;;20.50;;
50459;SDS011;36385;51.644;7.098;2022-12-07T02:10:57;33.63;;;19.02;;
50459;SDS011;36385;51.644;7.098;2022-12-07T02:13:23;32.78;;;19.08;;
50459;SDS011;36385;51.644;7.098;2022-12-07T02:16:06;36.17;;;19.88;;
50459;SDS011;36385;51.644;7.098;2022-12-07T02:22:01;32.92;;;19.08;;
50459;SDS011;36385;51.644;7.098;2022-12-07T02:25:28;33.30;;;20.50;;
50459;SDS011;36385;51.644;7.098;2022-12-07T02:27:56;35.25;;;19.30;;
50459;SDS011;36385;51.644;7.098;2022-12-07T02:30:31;32.83;;;18.65;;
50459;SDS011;36385;51.644;7.098;2022-12-07T02:40:50;32.95;;;19.30;;
50459;SDS011;36385;51.644;7.098;2022-12-07T02:45:48;34.75;;;19.08;;
50459;SDS011;36385;51.644;7.098;2022-12-07T02:48:16;32.60;;;18.80;;
50459;SDS011;36385;51.644;7.098;2022-12-07T02:50:53;32.92;;;19.02;;
50459;SDS011;36385;51.644;7.098;2022-12-07T02:56:00;29.42;;;17.98;;
50459;SDS011;36385;51.644;7.098;2022-12-07T03:03:56;31.30;;;17.60;;
50459;SDS011;36385;51.644;7.098;2022-12-07T03:06:46;32.67;;;18.30;;
50459;SDS011;36385;51.644;7.098;2022-12-07T03:09:37;34.50;;;18.90;;
50459;SDS011;36385;51.644;7.098;2022-12-07T03:12:29;35.95;;;19.77;;
50459;SDS011;36385;51.644;7.098;2022-12-07T03:17:33;34.42;;;20.25;;
50459;SDS011;36385;51.644;7.098;2022-12-07T03:20:04;35.03;;;19.73;;
50459;SDS011;36385;51.644;7.098;2022-12-07T03:22:31;35.83;;;19.17;;
50459;SDS011;36385;51.644;7.098;2022-12-07T03:25:01;35.45;;;20.33;;
50459;SDS011;36385;51.644;7.098;2022-12-07T03:27:39;39.20;;;20.17;;
50459;SDS011;36385;51.644;7.098;2022-12-07T03:30:18;35.67;;;20.25;;
50459;SDS011;36385;51.644;7.098;2022-12-07T03:32:48;36.83;;;20.05;;
50459;SDS011;36385;51.644;7.098;2022-12-07T03:37:55;37.78;;;19.75;;
50459;SDS011;36385;51.644;7.098;2022-12-07T03:40:34;37.47;;;19.95;;
50459;SDS011;36385;51.644;7.098;2022-12-07T03:43:14;40.63;;;21.17;;
50459;SDS011;36385;51.644;7.098;2022-12-07T03:45:43;38.55;;;20.77;;
50459;SDS011;36385;51.644;7.098;2022-12-07T03:50:47;39.42;;;20.13;;
50459;SDS011;36385;51.644;7.098;2022-12-07T03:53:19;35.05;;;19.67;;
50459;SDS011;36385;51.644;7.098;2022-12-07T03:55:49;35.10;;;20.02;;
50459;SDS011;36385;51.644;7.098;2022-12-07T03:58:18;37.40;;;20.42;;
50459;SDS011;36385;51.644;7.098;2022-12-07T04:00:46;35.70;;;20.27;;
50459;SDS011;36385;51.644;7.098;2022-12-07T04:03:13;38.22;;;20.13;;
50459;SDS011;36385;51.644;7.098;2022-12-07T04:05:39;33.92;;;19.00;;
50459;SDS011;36385;51.644;7.098;2022-12-07T04:08:05;38.40;;;20.27;;
50459;SDS011;36385;51.644;7.098;2022-12-07T04:10:31;34.33;;;19.27;;
50459;SDS011;36385;51.644;7.098;2022-12-07T04:12:57;36.38;;;19.95;;
50459;SDS011;36385;51.644;7.098;2022-12-07T04:15:22;36.13;;;19.88;;
50459;SDS011;36385;51.644;7.098;2022-12-07T04:17:48;34.15;;;19.27;;
50459;SDS011;36385;51.644;7.098;2022-12-07T04:20:14;36.55;;;18.90;;
50459;SDS011;36385;51.644;7.098;2022-12-07T04:22:39;33.50;;;19.83;;
50459;SDS011;36385;51.644;7.098;2022-12-07T04:25:05;34.85;;;19.60;;
50459;SDS011;36385;51.644;7.098;2022-12-07T04:27:31;36.17;;;19.92;;
50459;SDS011;36385;51.644;7.098;2022-12-07T04:29:57;36.22;;;19.50;;
50459;SDS011;36385;51.644;7.098;2022-12-07T04:32:22;36.47;;;19.35;;
50459;SDS011;36385;51.644;7.098;2022-12-07T04:34:48;33.88;;;18.80;;
50459;SDS011;36385;51.644;7.098;2022-12-07T04:37:14;35.67;;;19.50;;
50459;SDS011;36385;51.644;7.098;2022-12-07T04:39:40;35.75;;;19.70;;
50459;SDS011;36385;51.644;7.098;2022-12-07T04:42:06;36.83;;;18.90;;
50459;SDS011;36385;51.644;7.098;2022-12-07T04:44:32;33.58;;;19.52;;
50459;SDS011;36385;51.644;7.098;2022-12-07T04:46:57;35.65;;;19.52;;
50459;SDS011;36385;51.644;7.098;2022-12-07T04:49:23;35.33;;;18.85;;
50459;SDS011;36385;51.644;7.098;2022-12-07T04:51:50;34.05;;;18.92;;
50459;SDS011;36385;51.644;7.098;2022-12-07T04:54:16;36.95;;;19.02;;
50459;SDS011;36385;51.644;7.098;2022-12-07T04:56:42;33.20;;;18.02;;
50459;SDS011;36385;51.644;7.098;2022-12-07T04:59:09;34.97;;;18.85;;
50459;SDS011;36385;51.644;7.098;2022-12-07T05:01:38;34.53;;;18.98;;
50459;SDS011;36385;51.644;7.098;2022-12-07T05:04:04;32.20;;;18.45;;
50459;SDS011;36385;51.644;7.098;2022-12-07T05:06:30;33.95;;;17.67;;
50459;SDS011;36385;51.644;7.098;2022-12-07T05:08:56;31.05;;;17.95;;
50459;SDS011;36385;51.644;7.098;2022-12-07T05:11:22;32.78;;;17.48;;
50459;SDS011;36385;51.644;7.098;2022-12-07T05:14:04;34.13;;;17.58;;
50459;SDS011;36385;51.644;7.098;2022-12-07T05:16:34;35.72;;;18.02;;
50459;SDS011;36385;51.644;7.098;2022-12-07T05:19:00;30.45;;;16.98;;
50459;SDS011;36385;51.644;7.098;2022-12-07T05:21:26;31.13;;;17.83;;
50459;SDS011;36385;51.644;7.098;2022-12-07T05:23:52;30.58;;;17.92;;
50459;SDS011;36385;51.644;7.098;2022-12-07T05:26:17;29.02;;;17.08;;
50459;SDS011;36385;51.644;7.098;2022-12-07T05:28:43;29.05;;;17.13;;
50459;SDS011;36385;51.644;7.098;2022-12-07T05:31:09;31.42;;;17.55;;
50459;SDS011;36385;51.644;7.098;2022-12-07T05:33:35;33.53;;;17.85;;
50459;SDS011;36385;51.644;7.098;2022-12-07T05:36:00;33.33;;;18.55;;
50459;SDS011;36385;51.644;7.098;2022-12-07T05:38:30;35.08;;;17.92;;
50459;SDS011;36385;51.644;7.098;2022-12-07T05:40:59;32.05;;;17.20;;
50459;SDS011;36385;51.644;7.098;2022-12-07T05:43:29;30.08;;;17.40;;
50459;SDS011;36385;51.644;7.098;2022-12-07T05:45:55;32.80;;;17.35;;
50459;SDS011;36385;51.644;7.098;2022-12-07T05:48:21;29.20;;;16.65;;
50459;SDS011;36385;51.644;7.098;2022-12-07T05:50:47;29.98;;;16.77;;
50459;SDS011;36385;51.644;7.098;2022-12-07T05:53:13;30.30;;;16.85;;
50459;SDS011;36385;51.644;7.098;2022-12-07T05:55:39;33.00;;;17.83;;
50459;SDS011;36385;51.644;7.098;2022-12-07T05:58:05;30.27;;;16.33;;
50459;SDS011;36385;51.644;7.098;2022-12-07T06:00:49;31.45;;;16.95;;
50459;SDS011;36385;51.644;7.098;2022-12-07T06:03:15;26.42;;;15.98;;
50459;SDS011;36385;51.644;7.098;2022-12-07T06:05:41;30.75;;;16.95;;
50459;SDS011;36385;51.644;7.098;2022-12-07T06:08:06;31.75;;;16.75;;
50459;SDS011;36385;51.644;7.098;2022-12-07T06:10:32;30.77;;;16.85;;
50459;SDS011;36385;51.644;7.098;2022-12-07T06:12:58;31.23;;;17.33;;
50459;SDS011;36385;51.644;7.098;2022-12-07T06:15:24;30.42;;;16.00;;
50459;SDS011;36385;51.644;7.098;2022-12-07T06:17:49;30.40;;;17.92;;
50459;SDS011;36385;51.644;7.098;2022-12-07T06:20:15;30.13;;;16.83;;
50459;SDS011;36385;51.644;7.098;2022-12-07T06:22:41;29.98;;;16.48;;
50459;SDS011;36385;51.644;7.098;2022-12-07T06:25:06;29.60;;;16.45;;
50459;SDS011;36385;51.644;7.098;2022-12-07T06:27:32;29.30;;;15.35;;
50459;SDS011;36385;51.644;7.098;2022-12-07T06:29:58;28.77;;;16.23;;
50459;SDS011;36385;51.644;7.098;2022-12-07T06:32:24;28.58;;;16.40;;
50459;SDS011;36385;51.644;7.098;2022-12-07T06:34:50;25.95;;;15.57;;
50459;SDS011;36385;51.644;7.098;2022-12-07T06:37:16;27.48;;;14.95;;
50459;SDS011;36385;51.644;7.098;2022-12-07T06:39:41;27.10;;;14.95;;
50459;SDS011;36385;51.644;7.098;2022-12-07T06:42:07;25.33;;;15.18;;
50459;SDS011;36385;51.644;7.098;2022-12-07T06:44:33;24.67;;;14.52;;
50459;SDS011;36385;51.644;7.098;2022-12-07T06:46:58;26.95;;;14.65;;
50459;SDS011;36385;51.644;7.098;2022-12-07T06:49:24;24.27;;;13.43;;
50459;SDS011;36385;51.644;7.098;2022-12-07T06:51:49;28.08;;;14.23;;
50459;SDS011;36385;51.644;7.098;2022-12-07T06:54:15;26.75;;;14.60;;
50459;SDS011;36385;51.644;7.098;2022-12-07T06:56:41;26.02;;;14.27;;
50459;SDS011;36385;51.644;7.098;2022-12-07T06:59:07;26.50;;;14.38;;
50459;SDS011;36385;51.644;7.098;2022-12-07T07:01:34;29.88;;;14.73;;
50459;SDS011;36385;51.644;7.098;2022-12-07T07:04:00;26.67;;;13.63;;
50459;SDS011;36385;51.644;7.098;2022-12-07T07:06:26;25.00;;;13.07;;
50459;SDS011;36385;51.644;7.098;2022-12-07T07:08:52;27.80;;;14.23;;
50459;SDS011;36385;51.644;7.098;2022-12-07T07:11:18;26.55;;;13.98;;
50459;SDS011;36385;51.644;7.098;2022-12-07T07:13:44;23.35;;;13.82;;
50459;SDS011;36385;51.644;7.098;2022-12-07T07:16:10;22.65;;;13.45;;
50459;SDS011;36385;51.644;7.098;2022-12-07T07:18:35;26.13;;;14.23;;
50459;SDS011;36385;51.644;7.098;2022-12-07T07:21:02;26.88;;;14.10;;
50459;SDS011;36385;51.644;7.098;2022-12-07T07:23:28;26.08;;;13.60;;
50459;SDS011;36385;51.644;7.098;2022-12-07T07:25:54;22.75;;;12.65;;
50459;SDS011;36385;51.644;7.098;2022-12-07T07:28:19;24.67;;;12.77;;
50459;SDS011;36385;51.644;7.098;2022-12-07T07:30:45;23.40;;;12.57;;
50459;SDS011;36385;51.644;7.098;2022-12-07T07:33:11;21.73;;;12.65;;
50459;SDS011;36385;51.644;7.098;2022-12-07T07:35:37;24.73;;;13.15;;
50459;SDS011;36385;51.644;7.098;2022-12-07T07:38:03;24.13;;;13.00;;
50459;SDS011;36385;51.644;7.098;2022-12-07T07:40:29;24.42;;;13.57;;
50459;SDS011;36385;51.644;7.098;2022-12-07T07:42:55;25.55;;;13.35;;
50459;SDS011;36385;51.644;7.098;2022-12-07T07:45:22;26.60;;;13.15;;
50459;SDS011;36385;51.644;7.098;2022-12-07T07:47:49;26.77;;;13.93;;
50459;SDS011;36385;51.644;7.098;2022-12-07T07:50:15;26.63;;;13.93;;
50459;SDS011;36385;51.644;7.098;2022-12-07T07:52:41;27.08;;;15.00;;
50459;SDS011;36385;51.644;7.098;2022-12-07T07:55:07;26.00;;;13.15;;
50459;SDS011;36385;51.644;7.098;2022-12-07T07:57:34;25.42;;;12.95;;
50459;SDS011;36385;51.644;7.098;2022-12-07T08:00:00;25.83;;;13.57;;
50459;SDS011;36385;51.644;7.098;2022-12-07T08:02:28;26.50;;;13.10;;
50459;SDS011;36385;51.644;7.098;2022-12-07T08:04:54;23.55;;;12.68;;
50459;SDS011;36385;51.644;7.098;2022-12-07T08:07:20;24.67;;;13.30;;
50459;SDS011;36385;51.644;7.098;2022-12-07T08:09:46;22.52;;;12.43;;
50459;SDS011;36385;51.644;7.098;2022-12-07T08:12:12;23.52;;;12.15;;
50459;SDS011;36385;51.644;7.098;2022-12-07T08:14:37;24.33;;;12.45;;
50459;SDS011;36385;51.644;7.098;2022-12-07T08:17:03;23.17;;;12.45;;
50459;SDS011;36385;51.644;7.098;2022-12-07T08:19:29;25.27;;;13.00;;
50459;SDS011;36385;51.644;7.098;2022-12-07T08:21:55;23.25;;;13.25;;
50459;SDS011;36385;51.644;7.098;2022-12-07T08:24:21;21.13;;;11.98;;
50459;SDS011;36385;51.644;7.098;2022-12-07T08:26:47;22.00;;;12.13;;
50459;SDS011;36385;51.644;7.098;2022-12-07T08:29:15;24.73;;;12.23;;
50459;SDS011;36385;51.644;7.098;2022-12-07T08:31:40;21.15;;;11.80;;
50459;SDS011;36385;51.644;7.098;2022-12-07T08:34:06;22.55;;;11.85;;
50459;SDS011;36385;51.644;7.098;2022-12-07T08:36:32;20.00;;;11.48;;
50459;SDS011;36385;51.644;7.098;2022-12-07T08:38:57;20.77;;;11.05;;
50459;SDS011;36385;51.644;7.098;2022-12-07T08:41:23;19.50;;;10.77;;
50459;SDS011;36385;51.644;7.098;2022-12-07T08:43:49;18.67;;;10.57;;
50459;SDS011;36385;51.644;7.098;2022-12-07T08:49:04;18.58;;;10.00;;
50459;SDS011;36385;51.644;7.098;2022-12-07T08:51:31;17.83;;;9.82;;
50459;SDS011;36385;51.644;7.098;2022-12-07T08:53:57;18.73;;;10.35;;
50459;SDS011;36385;51.644;7.098;2022-12-07T08:56:26;17.73;;;10.00;;
50459;SDS011;36385;51.644;7.098;2022-12-07T08:58:52;16.90;;;9.63;;
50459;SDS011;36385;51.644;7.098;2022-12-07T09:01:18;15.63;;;9.48;;
50459;SDS011;36385;51.644;7.098;2022-12-07T09:03:44;17.38;;;9.48;;
50459;SDS011;36385;51.644;7.098;2022-12-07T09:06:09;17.55;;;9.32;;
50459;SDS011;36385;51.644;7.098;2022-12-07T09:08:42;15.10;;;8.82;;
50459;SDS011;36385;51.644;7.098;2022-12-07T09:11:12;15.32;;;9.15;;
50459;SDS011;36385;51.644;7.098;2022-12-07T09:13:38;14.90;;;9.18;;
50459;SDS011;36385;51.644;7.098;2022-12-07T09:16:03;17.50;;;9.40;;
50459;SDS011;36385;51.644;7.098;2022-12-07T09:18:29;18.30;;;9.02;;
50459;SDS011;36385;51.644;7.098;2022-12-07T09:20:55;16.63;;;8.93;;
50459;SDS011;36385;51.644;7.098;2022-12-07T09:23:21;13.00;;;8.15;;
50459;SDS011;36385;51.644;7.098;2022-12-07T09:25:47;14.63;;;7.90;;
50459;SDS011;36385;51.644;7.098;2022-12-07T09:28:13;14.38;;;8.57;;
50459;SDS011;36385;51.644;7.098;2022-12-07T09:30:38;14.05;;;7.55;;
50459;SDS011;36385;51.644;7.098;2022-12-07T09:33:09;13.05;;;7.60;;
50459;SDS011;36385;51.644;7.098;2022-12-07T09:35:35;13.23;;;7.28;;
50459;SDS011;36385;51.644;7.098;2022-12-07T09:38:00;14.48;;;7.50;;
50459;SDS011;36385;51.644;7.098;2022-12-07T09:40:27;14.48;;;7.20;;
50459;SDS011;36385;51.644;7.098;2022-12-07T09:42:53;12.48;;;6.38;;
50459;SDS011;36385;51.644;7.098;2022-12-07T09:47:59;13.88;;;6.30;;
50459;SDS011;36385;51.644;7.098;2022-12-07T09:50:26;12.88;;;5.97;;
50459;SDS011;36385;51.644;7.098;2022-12-07T09:52:54;10.70;;;6.03;;
50459;SDS011;36385;51.644;7.098;2022-12-07T09:55:28;13.50;;;6.10;;
50459;SDS011;36385;51.644;7.098;2022-12-07T09:57:55;11.98;;;6.10;;
50459;SDS011;36385;51.644;7.098;2022-12-07T10:00:23;13.00;;;5.35;;
50459;SDS011;36385;51.644;7.098;2022-12-07T10:05:20;12.10;;;5.47;;
50459;SDS011;36385;51.644;7.098;2022-12-07T10:08:02;11.30;;;5.88;;
50459;SDS011;36385;51.644;7.098;2022-12-07T10:10:29;10.90;;;5.53;;
50459;SDS011;36385;51.644;7.098;2022-12-07T10:13:07;11.82;;;6.00;;
50459;SDS011;36385;51.644;7.098;2022-12-07T10:23:34;10.10;;;4.90;;
50459;SDS011;36385;51.644;7.098;2022-12-07T10:29:01;9.60;;;4.82;;
50459;SDS011;36385;51.644;7.098;2022-12-07T10:34:40;10.27;;;4.85;;
50459;SDS011;36385;51.644;7.098;2022-12-07T10:37:16;10.43;;;4.82;;
50459;SDS011;36385;51.644;7.098;2022-12-07T10:40:10;9.07;;;4.60;;
50459;SDS011;36385;51.644;7.098;2022-12-07T10:43:08;12.10;;;4.97;;
50459;SDS011;36385;51.644;7.098;2022-12-07T10:48:59;13.07;;;4.53;;
50459;SDS011;36385;51.644;7.098;2022-12-07T11:00:16;9.73;;;4.80;;
50459;SDS011;36385;51.644;7.098;2022-12-07T11:15:42;11.48;;;4.82;;
50459;SDS011;36385;51.644;7.098;2022-12-07T11:21:35;12.07;;;5.03;;
50459;SDS011;36385;51.644;7.098;2022-12-07T11:24:26;9.02;;;4.05;;
50459;SDS011;36385;51.644;7.098;2022-12-07T11:27:01;10.15;;;4.30;;
50459;SDS011;36385;51.644;7.098;2022-12-07T11:37:38;9.13;;;4.18;;
50459;SDS011;36385;51.644;7.098;2022-12-07T11:45:32;9.57;;;4.03;;
50459;SDS011;36385;51.644;7.098;2022-12-07T11:56:19;12.03;;;4.43;;
50459;SDS011;36385;51.644;7.098;2022-12-07T12:06:38;9.05;;;4.20;;
50459;SDS011;36385;51.644;7.098;2022-12-07T12:09:18;9.68;;;3.78;;
50459;SDS011;36385;51.644;7.098;2022-12-07T12:12:22;8.65;;;3.75;;
50459;SDS011;36385;51.644;7.098;2022-12-07T12:25:59;10.32;;;3.20;;
50459;SDS011;36385;51.644;7.098;2022-12-07T12:33:53;10.15;;;4.47;;
50459;SDS011;36385;51.644;7.098;2022-12-07T12:44:02;7.25;;;3.47;;
50459;SDS011;36385;51.644;7.098;2022-12-07T12:51:49;11.40;;;6.13;;
50459;SDS011;36385;51.644;7.098;2022-12-07T12:57:03;8.40;;;3.58;;
50459;SDS011;36385;51.644;7.098;2022-12-07T13:05:01;10.43;;;6.80;;
50459;SDS011;36385;51.644;7.098;2022-12-07T13:16:36;8.85;;;3.45;;
50459;SDS011;36385;51.644;7.098;2022-12-07T13:18:39;9.70;;;4.07;;
50459;SDS011;36385;51.644;7.098;2022-12-07T13:28:47;11.70;;;3.80;;
50459;SDS011;36385;51.644;7.098;2022-12-07T13:31:30;8.05;;;4.00;;
50459;SDS011;36385;51.644;7.098;2022-12-07T13:34:03;7.32;;;2.95;;
50459;SDS011;36385;51.644;7.098;2022-12-07T13:36:32;10.85;;;5.05;;
50459;SDS011;36385;51.644;7.098;2022-12-07T13:39:11;10.23;;;4.82;;
50459;SDS011;36385;51.644;7.098;2022-12-07T13:41:43;11.55;;;4.60;;
50459;SDS011;36385;51.644;7.098;2022-12-07T13:44:14;6.20;;;3.35;;
50459;SDS011;36385;51.644;7.098;2022-12-07T13:46:43;9.13;;;5.55;;
50459;SDS011;36385;51.644;7.098;2022-12-07T13:49:17;10.90;;;3.97;;
50459;SDS011;36385;51.644;7.098;2022-12-07T13:51:48;8.50;;;4.53;;
50459;SDS011;36385;51.644;7.098;2022-12-07T13:54:14;9.20;;;3.97;;
50459;SDS011;36385;51.644;7.098;2022-12-07T13:56:41;9.00;;;3.28;;
50459;SDS011;36385;51.644;7.098;2022-12-07T13:59:14;8.95;;;4.10;;
50459;SDS011;36385;51.644;7.098;2022-12-07T14:01:52;11.18;;;5.45;;
50459;SDS011;36385;51.644;7.098;2022-12-07T14:04:30;9.70;;;4.60;;
50459;SDS011;36385;51.644;7.098;2022-12-07T14:06:57;6.57;;;3.33;;
50459;SDS011;36385;51.644;7.098;2022-12-07T14:09:25;9.68;;;5.97;;
50459;SDS011;36385;51.644;7.098;2022-12-07T14:11:52;10.25;;;4.50;;
50459;SDS011;36385;51.644;7.098;2022-12-07T14:14:21;10.02;;;4.80;;
50459;SDS011;36385;51.644;7.098;2022-12-07T14:16:57;9.45;;;3.95;;
50459;SDS011;36385;51.644;7.098;2022-12-07T14:19:47;10.82;;;4.50;;
50459;SDS011;36385;51.644;7.098;2022-12-07T14:24:49;7.95;;;4.00;;
50459;SDS011;36385;51.644;7.098;2022-12-07T14:27:21;10.50;;;5.18;;
50459;SDS011;36385;51.644;7.098;2022-12-07T14:29:50;8.77;;;5.25;;
50459;SDS011;36385;51.644;7.098;2022-12-07T14:35:00;10.93;;;4.07;;
50459;SDS011;36385;51.644;7.098;2022-12-07T14:37:29;11.93;;;4.07;;
50459;SDS011;36385;51.644;7.098;2022-12-07T14:39:55;8.85;;;4.10;;
50459;SDS011;36385;51.644;7.098;2022-12-07T14:42:22;10.15;;;4.20;;
50459;SDS011;36385;51.644;7.098;2022-12-07T14:44:55;9.87;;;4.40;;
50459;SDS011;36385;51.644;7.098;2022-12-07T14:47:21;9.07;;;3.90;;
50459;SDS011;36385;51.644;7.098;2022-12-07T14:49:47;11.35;;;4.65;;
50459;SDS011;36385;51.644;7.098;2022-12-07T14:52:15;8.35;;;4.22;;
50459;SDS011;36385;51.644;7.098;2022-12-07T14:54:43;10.43;;;6.15;;
50459;SDS011;36385;51.644;7.098;2022-12-07T14:57:09;9.80;;;5.28;;
50459;SDS011;36385;51.644;7.098;2022-12-07T14:59:36;13.32;;;7.82;;
50459;SDS011;36385;51.644;7.098;2022-12-07T15:02:02;12.88;;;5.75;;
50459;SDS011;36385;51.644;7.098;2022-12-07T15:04:28;9.68;;;5.90;;
50459;SDS011;36385;51.644;7.098;2022-12-07T15:06:58;12.77;;;8.30;;
50459;SDS011;36385;51.644;7.098;2022-12-07T15:09:24;11.55;;;6.10;;
50459;SDS011;36385;51.644;7.098;2022-12-07T15:11:50;10.48;;;5.93;;
50459;SDS011;36385;51.644;7.098;2022-12-07T15:14:16;11.75;;;5.90;;
50459;SDS011;36385;51.644;7.098;2022-12-07T15:16:42;15.60;;;6.05;;
50459;SDS011;36385;51.644;7.098;2022-12-07T15:19:16;11.35;;;4.68;;
50459;SDS011;36385;51.644;7.098;2022-12-07T15:21:51;11.27;;;5.40;;
50459;SDS011;36385;51.644;7.098;2022-12-07T15:24:17;9.88;;;5.55;;
50459;SDS011;36385;51.644;7.098;2022-12-07T15:26:43;11.13;;;5.22;;
50459;SDS011;36385;51.644;7.098;2022-12-07T15:29:09;10.43;;;4.90;;
50459;SDS011;36385;51.644;7.098;2022-12-07T15:31:35;10.57;;;4.90;;
50459;SDS011;36385;51.644;7.098;2022-12-07T15:34:02;12.82;;;5.53;;
50459;SDS011;36385;51.644;7.098;2022-12-07T15:36:29;10.30;;;4.70;;
50459;SDS011;36385;51.644;7.098;2022-12-07T15:38:56;9.80;;;5.03;;
50459;SDS011;36385;51.644;7.098;2022-12-07T15:41:22;12.32;;;5.40;;
50459;SDS011;36385;51.644;7.098;2022-12-07T15:43:48;9.15;;;5.05;;
50459;SDS011;36385;51.644;7.098;2022-12-07T15:46:34;12.55;;;5.95;;
50459;SDS011;36385;51.644;7.098;2022-12-07T15:49:02;24.33;;;13.52;;
50459;SDS011;36385;51.644;7.098;2022-12-07T15:51:29;21.80;;;12.80;;
50459;SDS011;36385;51.644;7.098;2022-12-07T15:53:54;12.55;;;7.03;;
50459;SDS011;36385;51.644;7.098;2022-12-07T15:56:22;11.23;;;6.00;;
50459;SDS011;36385;51.644;7.098;2022-12-07T15:58:48;18.17;;;8.90;;
50459;SDS011;36385;51.644;7.098;2022-12-07T16:01:15;17.60;;;9.52;;
50459;SDS011;36385;51.644;7.098;2022-12-07T16:03:42;11.73;;;7.15;;
50459;SDS011;36385;51.644;7.098;2022-12-07T16:06:08;12.73;;;6.28;;
50459;SDS011;36385;51.644;7.098;2022-12-07T16:08:34;10.48;;;5.95;;
50459;SDS011;36385;51.644;7.098;2022-12-07T16:11:03;10.93;;;6.15;;
50459;SDS011;36385;51.644;7.098;2022-12-07T16:13:30;11.35;;;6.18;;
50459;SDS011;36385;51.644;7.098;2022-12-07T16:15:56;11.05;;;5.85;;
50459;SDS011;36385;51.644;7.098;2022-12-07T16:18:21;8.70;;;5.20;;
50459;SDS011;36385;51.644;7.098;2022-12-07T16:20:47;10.02;;;6.05;;
50459;SDS011;36385;51.644;7.098;2022-12-07T16:23:14;12.88;;;7.50;;
50459;SDS011;36385;51.644;7.098;2022-12-07T16:25:40;15.18;;;7.68;;
50459;SDS011;36385;51.644;7.098;2022-12-07T16:28:06;11.68;;;6.43;;
50459;SDS011;36385;51.644;7.098;2022-12-07T16:30:33;15.60;;;8.20;;
50459;SDS011;36385;51.644;7.098;2022-12-07T16:32:59;13.30;;;6.85;;
50459;SDS011;36385;51.644;7.098;2022-12-07T16:35:24;10.45;;;6.00;;
50459;SDS011;36385;51.644;7.098;2022-12-07T16:37:50;13.00;;;5.90;;
50459;SDS011;36385;51.644;7.098;2022-12-07T16:40:15;9.85;;;5.30;;
50459;SDS011;36385;51.644;7.098;2022-12-07T16:42:41;12.90;;;9.05;;
50459;SDS011;36385;51.644;7.098;2022-12-07T16:45:07;15.80;;;11.95;;
50459;SDS011;36385;51.644;7.098;2022-12-07T16:47:33;14.68;;;10.07;;
50459;SDS011;36385;51.644;7.098;2022-12-07T16:50:02;13.60;;;6.75;;
50459;SDS011;36385;51.644;7.098;2022-12-07T16:52:29;10.48;;;6.35;;
50459;SDS011;36385;51.644;7.098;2022-12-07T16:54:54;12.93;;;5.95;;
50459;SDS011;36385;51.644;7.098;2022-12-07T16:57:20;12.32;;;6.30;;
50459;SDS011;36385;51.644;7.098;2022-12-07T16:59:46;14.07;;;7.82;;
50459;SDS011;36385;51.644;7.098;2022-12-07T17:02:11;17.50;;;9.85;;
50459;SDS011;36385;51.644;7.098;2022-12-07T17:04:37;13.18;;;9.20;;
50459;SDS011;36385;51.644;7.098;2022-12-07T17:07:05;13.02;;;6.90;;
50459;SDS011;36385;51.644;7.098;2022-12-07T17:09:31;10.60;;;6.63;;
50459;SDS011;36385;51.644;7.098;2022-12-07T17:11:57;12.98;;;7.22;;
50459;SDS011;36385;51.644;7.098;2022-12-07T17:14:23;11.25;;;6.10;;
50459;SDS011;36385;51.644;7.098;2022-12-07T17:17:07;12.50;;;6.80;;
50459;SDS011;36385;51.644;7.098;2022-12-07T17:19:32;28.33;;;20.20;;
50459;SDS011;36385;51.644;7.098;2022-12-07T17:21:58;20.33;;;13.43;;
50459;SDS011;36385;51.644;7.098;2022-12-07T17:24:24;18.20;;;11.98;;
50459;SDS011;36385;51.644;7.098;2022-12-07T17:26:49;13.27;;;8.35;;
50459;SDS011;36385;51.644;7.098;2022-12-07T17:29:16;14.35;;;8.52;;